Time;durP1;ratioP1;P1;durP2;ratioP2;P2;SDS_P1;SDS_P2;PMS_P1;PMS_P2;Temp;Humidity;BMP_temperature;BMP_pressure;BME280_temperature;BME280_humidity;BME280_pressure;Samples;Min_cycle;Max_cycle;Signal;HPM_P1;HPM_P2
2021/08/10 00:01:09;;;;;;;6.23;4.20;;;15.30;1.00;;;;;;5114585;27;20468;-72
2021/08/10 00:03:35;;;;;;;5.90;4.90;;;15.40;1.00;;;;;;5115493;27;20449;-74
2021/08/10 00:06:02;;;;;;;5.67;4.83;;;15.40;1.00;;;;;;5114924;27;20450;-75
2021/08/10 00:08:29;;;;;;;7.77;5.80;;;15.40;1.00;;;;;;5113344;27;21542;-73
2021/08/10 00:10:56;;;;;;;5.57;5.07;;;15.30;1.00;;;;;;5112080;27;20447;-74
2021/08/10 00:13:24;;;;;;;7.03;4.67;;;15.30;1.00;;;;;;5112515;27;20985;-75
2021/08/10 00:15:52;;;;;;;6.00;5.30;;;15.30;1.00;;;;;;5115340;27;20557;-73
2021/08/10 00:18:21;;;;;;;5.83;5.33;;;15.30;1.00;;;;;;5118868;27;20469;-75
2021/08/10 00:20:49;;;;;;;6.20;5.27;;;15.30;1.00;;;;;;5115544;27;20447;-73
2021/08/10 00:23:16;;;;;;;6.40;4.70;;;15.20;1.00;;;;;;5113978;27;20455;-73
2021/08/10 00:25:43;;;;;;;8.07;5.60;;;15.20;1.00;;;;;;5118287;27;20455;-75
2021/08/10 00:28:10;;;;;;;6.20;5.57;;;15.20;1.00;;;;;;5113777;27;20460;-74
2021/08/10 00:30:39;;;;;;;6.10;5.60;;;15.20;1.00;;;;;;5112341;27;20461;-73
2021/08/10 00:33:07;;;;;;;6.57;5.50;;;15.20;1.00;;;;;;5115341;27;20432;-72
2021/08/10 00:35:34;;;;;;;5.60;5.10;;;15.10;1.00;;;;;;5118059;27;20418;-74
2021/08/10 00:38:01;;;;;;;5.90;5.30;;;15.10;1.00;;;;;;5101791;27;20478;-74
2021/08/10 00:40:28;;;;;;;6.57;4.87;;;15.10;1.00;;;;;;5112051;27;20454;-75
2021/08/10 00:42:55;;;;;;;4.87;4.47;;;15.10;1.00;;;;;;5118922;27;21013;-73
2021/08/10 00:45:22;;;;;;;5.60;4.97;;;15.20;1.00;;;;;;5112968;27;20453;-73
2021/08/10 00:47:49;;;;;;;6.63;6.00;;;15.20;1.00;;;;;;5114287;27;20550;-74
2021/08/10 00:50:17;;;;;;;5.80;5.20;;;15.10;1.00;;;;;;5113098;27;20458;-74
2021/08/10 00:52:45;;;;;;;5.63;5.00;;;15.10;1.00;;;;;;5111355;27;20462;-73
2021/08/10 00:55:13;;;;;;;5.47;4.87;;;15.10;1.00;;;;;;5110610;27;20423;-75
2021/08/10 00:57:40;;;;;;;6.90;5.73;;;15.10;1.00;;;;;;5114376;27;20458;-76
2021/08/10 01:00:08;;;;;;;5.87;5.37;;;15.10;1.00;;;;;;5116651;27;20446;-73
2021/08/10 01:02:35;;;;;;;5.67;5.17;;;15.10;1.00;;;;;;5117059;27;21177;-74
2021/08/10 01:05:05;;;;;;;6.23;5.27;;;15.10;1.00;;;;;;5115221;27;20410;-76
2021/08/10 01:07:40;;;;;;;6.20;5.60;;;15.10;1.00;;;;;;5121673;27;20532;-75
2021/08/10 01:10:12;;;;;;;5.60;5.10;;;15.10;1.00;;;;;;5116119;27;20446;-74
2021/08/10 01:12:47;;;;;;;5.67;5.00;;;15.10;1.00;;;;;;5114671;27;20469;-74
2021/08/10 01:15:17;;;;;;;6.37;5.57;;;15.10;1.00;;;;;;5117479;27;20493;-75
2021/08/10 01:17:52;;;;;;;6.60;5.70;;;15.10;1.00;;;;;;5116361;27;20978;-74
2021/08/10 01:20:50;;;;;;;6.47;5.87;;;15.10;1.00;;;;;;5117799;27;20409;-77
2021/08/10 01:23:24;;;;;;;5.73;5.23;;;15.10;1.00;;;;;;5114647;27;20438;-77
2021/08/10 01:25:59;;;;;;;5.83;5.27;;;15.00;1.00;;;;;;5114380;27;20495;-75
2021/08/10 01:28:40;;;;;;;5.43;4.93;;;15.00;1.00;;;;;;5122636;27;20463;-78
2021/08/10 01:31:17;;;;;;;6.63;6.03;;;15.00;1.00;;;;;;5112838;27;20481;-74
2021/08/10 01:33:46;;;;;;;6.40;5.60;;;15.00;1.00;;;;;;5113733;27;20465;-72
2021/08/10 01:36:17;;;;;;;6.37;5.77;;;15.00;1.00;;;;;;5117170;27;20407;-73
2021/08/10 01:38:47;;;;;;;6.37;5.77;;;15.00;1.00;;;;;;5115753;27;20478;-74
2021/08/10 01:41:15;;;;;;;6.60;6.00;;;15.00;1.00;;;;;;5124429;27;20430;-74
2021/08/10 01:43:43;;;;;;;6.40;5.20;;;14.90;1.00;;;;;;5121855;27;20470;-72
2021/08/10 01:46:11;;;;;;;8.93;6.10;;;15.00;1.00;;;;;;5115239;27;20470;-75
2021/08/10 01:48:40;;;;;;;7.10;6.40;;;14.90;1.00;;;;;;5114257;27;20511;-73
2021/08/10 01:51:08;;;;;;;6.50;5.90;;;14.90;1.00;;;;;;5114020;27;20453;-77
2021/08/10 01:53:37;;;;;;;6.67;6.07;;;14.90;1.00;;;;;;5117978;27;20557;-74
2021/08/10 01:56:05;;;;;;;9.43;5.60;;;14.90;1.00;;;;;;5122418;27;20481;-76
2021/08/10 01:58:32;;;;;;;7.50;5.50;;;14.90;1.00;;;;;;5116867;27;20479;-75
2021/08/10 02:01:00;;;;;;;6.13;5.53;;;14.90;1.00;;;;;;5125563;27;20457;-73
2021/08/10 02:03:29;;;;;;;6.53;5.30;;;14.90;1.00;;;;;;5120306;27;20556;-74
2021/08/10 02:05:58;;;;;;;8.10;5.70;;;14.90;1.00;;;;;;5122828;27;20529;-77
2021/08/10 02:08:26;;;;;;;7.00;5.37;;;14.90;1.00;;;;;;5118763;27;20476;-75
2021/08/10 02:10:54;;;;;;;6.20;5.60;;;14.90;1.00;;;;;;5117705;27;20556;-74
2021/08/10 02:13:21;;;;;;;6.33;5.50;;;14.90;1.00;;;;;;5122380;27;20442;-76
2021/08/10 02:15:49;;;;;;;7.90;5.23;;;14.90;1.00;;;;;;5116596;27;20489;-73
2021/08/10 02:18:18;;;;;;;7.20;5.80;;;14.80;1.00;;;;;;5117307;27;20478;-75
2021/08/10 02:20:48;;;;;;;6.23;5.70;;;14.80;1.00;;;;;;5121470;27;20418;-73
2021/08/10 02:23:19;;;;;;;6.80;6.10;;;14.80;1.00;;;;;;5117956;27;20426;-75
2021/08/10 02:25:48;;;;;;;8.17;6.27;;;14.80;1.00;;;;;;5113136;27;20418;-70
2021/08/10 02:28:17;;;;;;;7.33;5.80;;;14.80;1.00;;;;;;5115422;27;21464;-73
2021/08/10 02:30:49;;;;;;;7.10;6.40;;;14.80;1.00;;;;;;5115509;27;20445;-72
2021/08/10 02:33:17;;;;;;;7.60;5.90;;;14.80;1.00;;;;;;5114148;27;20487;-72
2021/08/10 02:35:46;;;;;;;7.60;6.67;;;14.80;1.00;;;;;;5115696;27;20961;-74
2021/08/10 02:38:18;;;;;;;7.50;6.00;;;14.80;1.00;;;;;;5115907;27;20456;-72
2021/08/10 02:40:48;;;;;;;7.13;6.43;;;14.80;1.00;;;;;;5116671;27;20488;-74
2021/08/10 02:43:17;;;;;;;7.70;6.83;;;14.90;1.00;;;;;;5113189;27;20471;-74
2021/08/10 02:45:44;;;;;;;6.73;6.10;;;14.90;1.00;;;;;;5115528;27;20515;-74
2021/08/10 02:48:11;;;;;;;9.20;7.47;;;15.00;1.00;;;;;;5113557;27;21274;-72
2021/08/10 02:50:38;;;;;;;7.03;6.33;;;15.00;1.00;;;;;;5117812;27;20429;-73
2021/08/10 02:53:05;;;;;;;8.67;5.80;;;15.00;1.00;;;;;;5116942;27;20528;-72
2021/08/10 02:55:35;;;;;;;6.37;5.77;;;15.00;1.00;;;;;;5116955;27;20470;-75
2021/08/10 02:58:07;;;;;;;6.33;5.80;;;15.00;1.00;;;;;;5116140;27;20529;-74
2021/08/10 03:00:38;;;;;;;8.43;6.60;;;14.90;1.00;;;;;;5118554;27;20504;-75
2021/08/10 03:03:10;;;;;;;6.30;5.80;;;14.90;1.00;;;;;;5114202;27;20417;-73
2021/08/10 03:05:38;;;;;;;7.03;6.00;;;14.80;1.00;;;;;;5122023;27;20435;-76
2021/08/10 03:08:07;;;;;;;6.63;6.10;;;14.80;1.00;;;;;;5111841;27;20483;-72
2021/08/10 03:10:38;;;;;;;6.10;5.50;;;14.80;1.00;;;;;;5119674;27;20451;-74
2021/08/10 03:13:08;;;;;;;7.03;6.17;;;14.80;1.00;;;;;;5101319;27;21386;-73
2021/08/10 03:15:39;;;;;;;7.00;6.30;;;14.80;1.00;;;;;;5116292;27;21260;-74
2021/08/10 03:18:09;;;;;;;9.07;6.57;;;14.80;1.00;;;;;;5117032;27;20886;-74
2021/08/10 03:20:38;;;;;;;7.30;6.60;;;14.70;1.00;;;;;;5138589;27;20425;-74
2021/08/10 03:23:07;;;;;;;7.53;6.93;;;14.70;1.00;;;;;;5124476;27;21319;-73
2021/08/10 03:25:36;;;;;;;7.07;6.40;;;14.60;1.00;;;;;;5131032;27;20399;-74
2021/08/10 03:28:05;;;;;;;6.97;6.27;;;14.60;1.00;;;;;;5139513;27;20475;-73
2021/08/10 03:30:33;;;;;;;8.73;7.83;;;14.60;1.00;;;;;;5136684;27;21336;-73
2021/08/10 03:33:01;;;;;;;8.00;6.97;;;14.60;1.00;;;;;;5140798;27;20641;-74
2021/08/10 03:35:30;;;;;;;9.53;7.33;;;14.50;1.00;;;;;;5140989;27;20450;-74
2021/08/10 03:37:57;;;;;;;7.70;7.00;;;14.50;1.00;;;;;;5147983;27;20437;-73
2021/08/10 03:40:24;;;;;;;7.83;7.03;;;14.50;1.00;;;;;;5134274;27;21324;-73
2021/08/10 03:42:53;;;;;;;9.00;8.10;;;14.50;1.00;;;;;;5128613;27;20686;-73
2021/08/10 03:45:23;;;;;;;9.43;8.30;;;14.50;1.00;;;;;;5129215;27;20449;-73
2021/08/10 03:47:52;;;;;;;8.83;7.83;;;14.50;1.00;;;;;;5133188;27;20429;-72
2021/08/10 03:50:20;;;;;;;9.03;8.10;;;14.50;1.00;;;;;;5129607;27;20549;-74
2021/08/10 03:52:49;;;;;;;11.50;9.33;;;14.50;1.00;;;;;;5124028;27;20473;-75
2021/08/10 03:55:16;;;;;;;10.27;8.40;;;14.50;1.00;;;;;;5119044;27;20552;-73
2021/08/10 03:57:47;;;;;;;8.63;7.80;;;14.50;1.00;;;;;;5123612;27;20458;-71
2021/08/10 04:00:16;;;;;;;14.00;10.37;;;14.50;1.00;;;;;;5122737;27;20448;-72
2021/08/10 04:02:44;;;;;;;11.70;10.80;;;14.50;1.00;;;;;;5121308;27;20461;-75
2021/08/10 04:05:14;;;;;;;9.10;8.20;;;14.40;1.00;;;;;;5099713;27;20465;-73
2021/08/10 04:07:42;;;;;;;8.50;7.80;;;14.40;1.00;;;;;;5116134;27;20500;-74
2021/08/10 04:10:10;;;;;;;10.03;7.53;;;14.40;1.00;;;;;;5114755;27;20465;-73
2021/08/10 04:12:37;;;;;;;8.37;7.20;;;14.40;1.00;;;;;;5102102;27;20833;-73
2021/08/10 04:15:06;;;;;;;7.70;6.90;;;14.50;1.00;;;;;;5119426;27;20452;-73
2021/08/10 04:17:38;;;;;;;10.53;9.50;;;14.50;1.00;;;;;;5114703;27;20968;-72
2021/08/10 04:20:05;;;;;;;9.90;8.37;;;14.50;1.00;;;;;;5117207;27;20430;-75
2021/08/10 04:22:32;;;;;;;9.47;8.67;;;14.50;1.00;;;;;;5113800;27;20574;-74
2021/08/10 04:24:59;;;;;;;9.33;8.20;;;14.50;1.00;;;;;;5114850;27;20547;-77
2021/08/10 04:27:26;;;;;;;8.17;7.40;;;14.60;1.00;;;;;;5119681;27;20451;-75
2021/08/10 04:29:54;;;;;;;9.30;8.40;;;14.60;1.00;;;;;;5114934;27;20542;-75
2021/08/10 04:32:21;;;;;;;9.27;8.27;;;14.60;1.00;;;;;;5116133;27;20480;-76
2021/08/10 04:34:49;;;;;;;9.10;8.20;;;14.60;1.00;;;;;;5119634;27;21241;-77
2021/08/10 04:37:16;;;;;;;8.53;7.70;;;14.70;1.00;;;;;;5113355;27;20466;-74
2021/08/10 04:39:43;;;;;;;8.70;7.90;;;14.70;1.00;;;;;;5097829;27;20952;-75
2021/08/10 04:42:10;;;;;;;8.70;7.90;;;14.70;1.00;;;;;;5115792;27;20515;-76
2021/08/10 04:44:36;;;;;;;9.13;8.23;;;14.70;1.00;;;;;;5117126;27;21274;-75
2021/08/10 04:47:03;;;;;;;10.30;9.30;;;14.70;1.00;;;;;;5115331;27;20485;-76
2021/08/10 04:49:30;;;;;;;10.97;8.93;;;14.70;1.00;;;;;;5117034;27;20601;-76
2021/08/10 04:51:58;;;;;;;9.43;8.07;;;14.80;1.00;;;;;;5118579;27;20465;-75
2021/08/10 04:54:25;;;;;;;11.37;10.07;;;14.80;1.00;;;;;;5122341;27;20534;-76
2021/08/10 04:56:51;;;;;;;9.93;7.27;;;14.80;1.00;;;;;;5113255;27;20473;-75
2021/08/10 04:59:18;;;;;;;9.63;8.63;;;14.80;1.00;;;;;;5115640;27;20438;-75
2021/08/10 05:01:45;;;;;;;10.20;9.30;;;14.80;1.00;;;;;;5117996;27;20538;-75
2021/08/10 05:04:12;;;;;;;9.60;8.70;;;14.90;1.00;;;;;;5117102;27;20452;-73
2021/08/10 05:06:39;;;;;;;11.27;10.17;;;14.90;1.00;;;;;;5115207;27;20454;-71
2021/08/10 05:09:07;;;;;;;10.27;9.20;;;15.00;1.00;;;;;;5117823;27;20469;-73
2021/08/10 05:11:34;;;;;;;9.97;9.03;;;15.00;1.00;;;;;;5116641;27;20519;-73
2021/08/10 05:14:01;;;;;;;10.17;9.17;;;15.00;1.00;;;;;;5110086;27;20479;-72
2021/08/10 05:16:28;;;;;;;9.40;8.50;;;15.00;1.00;;;;;;5115438;27;20550;-72
2021/08/10 05:18:54;;;;;;;9.50;8.60;;;15.10;1.00;;;;;;5115273;27;20521;-73
2021/08/10 05:21:21;;;;;;;9.47;8.60;;;15.10;1.00;;;;;;5111331;27;21340;-71
2021/08/10 05:23:48;;;;;;;9.30;8.40;;;15.10;1.00;;;;;;5114831;27;20474;-72
2021/08/10 05:26:16;;;;;;;9.27;8.40;;;15.20;1.00;;;;;;5115137;27;20546;-72
2021/08/10 05:28:43;;;;;;;9.13;8.23;;;15.10;1.00;;;;;;5118120;27;20443;-75
2021/08/10 05:31:10;;;;;;;9.90;8.90;;;15.20;1.00;;;;;;5114934;27;20458;-73
2021/08/10 05:33:36;;;;;;;9.27;8.27;;;15.30;1.00;;;;;;5099288;27;20457;-73
2021/08/10 05:36:04;;;;;;;9.03;8.17;;;15.30;1.00;;;;;;5114216;27;20481;-73
2021/08/10 05:38:34;;;;;;;9.80;8.80;;;15.30;1.00;;;;;;5117388;27;20425;-73
2021/08/10 05:41:03;;;;;;;9.97;8.97;;;15.40;1.00;;;;;;5116534;27;20459;-73
2021/08/10 05:43:31;;;;;;;9.20;8.40;;;15.50;1.00;;;;;;5118047;27;20474;-73
2021/08/10 05:45:58;;;;;;;11.47;8.20;;;15.50;1.00;;;;;;5119205;27;20465;-73
2021/08/10 05:48:25;;;;;;;8.77;7.97;;;15.60;1.00;;;;;;5119020;27;20436;-72
2021/08/10 05:50:52;;;;;;;9.10;8.20;;;15.70;1.00;;;;;;5114114;27;20961;-72
2021/08/10 05:53:18;;;;;;;10.30;7.73;;;15.90;1.00;;;;;;5109955;27;20542;-73
2021/08/10 05:55:45;;;;;;;9.00;7.53;;;15.90;1.00;;;;;;5118327;27;20450;-73
2021/08/10 05:58:12;;;;;;;10.50;7.27;;;16.00;1.00;;;;;;5113424;27;20521;-73
2021/08/10 06:00:39;;;;;;;9.60;8.60;;;16.00;1.00;;;;;;5114371;27;20451;-74
2021/08/10 06:03:06;;;;;;;7.53;6.83;;;16.10;1.00;;;;;;5117787;27;20514;-73
2021/08/10 06:05:33;;;;;;;7.90;6.60;;;16.20;1.00;;;;;;5112016;27;20582;-73
2021/08/10 06:08:00;;;;;;;9.63;8.73;;;16.30;1.00;;;;;;5118116;27;20438;-73
2021/08/10 06:10:27;;;;;;;10.10;8.27;;;16.50;1.00;;;;;;5118137;27;20440;-73
2021/08/10 06:12:54;;;;;;;17.33;10.47;;;16.60;1.00;;;;;;5124789;27;20451;-73
2021/08/10 06:15:21;;;;;;;8.90;8.00;;;16.60;1.00;;;;;;5125157;27;20484;-73
2021/08/10 06:17:49;;;;;;;7.07;6.47;;;16.70;1.00;;;;;;5127992;27;20488;-72
2021/08/10 06:20:16;;;;;;;10.17;7.23;;;16.80;1.00;;;;;;5126466;27;20545;-73
2021/08/10 06:22:43;;;;;;;6.93;6.23;;;16.90;1.00;;;;;;5126285;27;20444;-75
2021/08/10 06:25:10;;;;;;;5.23;4.73;;;16.90;1.00;;;;;;5127112;27;20512;-74
2021/08/10 06:27:37;;;;;;;7.47;5.80;;;17.00;1.00;;;;;;5123171;27;20457;-72
2021/08/10 06:30:05;;;;;;;9.03;6.00;;;17.10;1.00;;;;;;5124073;27;20479;-74
2021/08/10 06:32:31;;;;;;;5.83;5.27;;;17.20;1.00;;;;;;5123860;27;20449;-72
2021/08/10 06:34:59;;;;;;;5.90;5.40;;;17.30;1.00;;;;;;5124168;27;20448;-74
2021/08/10 06:37:26;;;;;;;6.30;5.63;;;17.50;1.00;;;;;;5111884;27;20563;-73
2021/08/10 06:39:53;;;;;;;5.57;4.97;;;17.60;1.00;;;;;;5111899;27;20457;-73
2021/08/10 06:42:20;;;;;;;7.10;5.67;;;17.80;1.00;;;;;;5112552;27;20456;-74
2021/08/10 06:44:47;;;;;;;6.17;5.30;;;17.90;1.00;;;;;;5113910;27;20425;-73
2021/08/10 06:47:14;;;;;;;6.13;5.50;;;18.00;1.00;;;;;;5115736;27;20467;-74
2021/08/10 06:49:41;;;;;;;6.27;5.33;;;17.90;1.00;;;;;;5123717;27;20599;-73
2021/08/10 06:52:10;;;;;;;5.40;4.83;;;18.00;1.00;;;;;;5120974;27;21010;-72
2021/08/10 06:54:37;;;;;;;5.30;4.80;;;18.20;1.00;;;;;;5118952;27;20460;-72
2021/08/10 06:57:06;;;;;;;6.60;6.00;;;18.40;1.00;;;;;;5118314;27;20518;-74
2021/08/10 06:59:33;;;;;;;5.60;5.10;;;18.50;1.00;;;;;;5133073;27;20481;-73
2021/08/10 07:02:00;;;;;;;6.20;5.60;;;18.80;1.00;;;;;;5115290;27;20459;-73
2021/08/10 07:04:27;;;;;;;7.40;5.13;;;19.10;1.00;;;;;;5133076;27;20452;-73
2021/08/10 07:06:54;;;;;;;5.00;4.57;;;19.30;1.00;;;;;;5135442;27;20473;-74
2021/08/10 07:09:22;;;;;;;6.30;4.90;;;19.40;1.00;;;;;;5135759;27;20472;-73
2021/08/10 07:11:49;;;;;;;5.40;4.60;;;19.50;1.00;;;;;;5140168;27;20786;-73
2021/08/10 07:14:16;;;;;;;6.13;4.93;;;19.50;1.00;;;;;;5136043;27;20418;-72
2021/08/10 07:16:44;;;;;;;5.90;5.30;;;19.60;1.00;;;;;;5134978;27;20532;-73
2021/08/10 07:19:12;;;;;;;5.93;5.30;;;19.70;1.00;;;;;;5135521;27;20409;-72
2021/08/10 07:21:40;;;;;;;5.67;4.70;;;20.00;1.00;;;;;;5134692;27;20453;-73
2021/08/10 07:24:07;;;;;;;5.60;4.40;;;20.20;1.00;;;;;;5135106;27;20417;-74
2021/08/10 07:26:36;;;;;;;4.90;3.63;;;20.40;1.00;;;;;;5156233;27;20401;-74
2021/08/10 07:29:03;;;;;;;6.80;4.63;;;20.40;1.00;;;;;;5135672;27;20596;-75
2021/08/10 07:31:30;;;;;;;4.27;3.87;;;20.40;1.00;;;;;;5156754;27;20433;-76
2021/08/10 07:33:57;;;;;;;4.93;4.53;;;20.40;1.00;;;;;;5131605;27;20432;-76
2021/08/10 07:36:24;;;;;;;6.77;4.80;;;20.30;1.00;;;;;;5138063;27;20455;-73
2021/08/10 07:38:51;;;;;;;5.80;4.80;;;20.40;1.00;;;;;;5151945;27;20438;-75
2021/08/10 07:41:17;;;;;;;4.93;4.50;;;20.50;1.00;;;;;;5156541;27;20395;-74
2021/08/10 07:43:45;;;;;;;7.60;5.07;;;20.60;1.00;;;;;;5154760;27;20470;-75
2021/08/10 07:46:15;;;;;;;4.80;4.30;;;20.70;1.00;;;;;;5155124;27;20402;-75
2021/08/10 07:48:42;;;;;;;7.23;5.40;;;20.80;1.00;;;;;;5150674;27;20431;-74
2021/08/10 07:51:11;;;;;;;8.43;4.90;;;21.00;1.00;;;;;;5148809;27;20485;-74
2021/08/10 07:53:38;;;;;;;5.70;4.50;;;21.10;1.00;;;;;;5148331;27;20647;-77
2021/08/10 07:56:05;;;;;;;5.23;4.50;;;21.20;1.00;;;;;;5141855;27;20407;-75
2021/08/10 07:58:32;;;;;;;4.60;4.20;;;21.20;1.00;;;;;;5148980;27;20438;-75
2021/08/10 08:01:00;;;;;;;10.93;6.07;;;21.30;1.00;;;;;;5149984;27;20422;-75
2021/08/10 08:03:27;;;;;;;4.33;3.60;;;21.40;1.00;;;;;;5143268;27;20433;-76
2021/08/10 08:05:54;;;;;;;6.37;4.13;;;21.40;1.00;;;;;;5138815;27;20404;-76
2021/08/10 08:08:22;;;;;;;4.80;4.30;;;21.40;1.00;;;;;;5139057;27;21690;-75
2021/08/10 08:10:48;;;;;;;4.90;3.90;;;21.30;1.00;;;;;;5142884;27;20426;-75
2021/08/10 08:13:15;;;;;;;6.00;5.03;;;21.30;1.00;;;;;;5136335;27;20551;-74
2021/08/10 08:15:42;;;;;;;5.47;4.03;;;21.30;1.00;;;;;;5138094;27;20434;-77
2021/08/10 08:18:10;;;;;;;4.20;3.73;;;21.30;1.00;;;;;;5134991;27;20491;-76
2021/08/10 08:20:37;;;;;;;6.27;3.77;;;21.20;1.00;;;;;;5114425;27;20479;-75
2021/08/10 08:23:05;;;;;;;4.23;3.93;;;21.10;1.00;;;;;;5129014;27;20455;-74
2021/08/10 08:25:32;;;;;;;4.67;4.20;;;21.00;1.00;;;;;;5126412;27;20471;-74
2021/08/10 08:27:59;;;;;;;7.57;5.70;;;21.00;1.00;;;;;;5122562;27;20442;-74
2021/08/10 08:30:26;;;;;;;6.17;4.03;;;21.00;1.00;;;;;;5092553;27;21012;-76
2021/08/10 08:32:52;;;;;;;4.70;4.20;;;21.00;1.00;;;;;;5118537;27;20474;-77
2021/08/10 08:35:20;;;;;;;5.00;4.60;;;21.10;1.00;;;;;;5124004;27;20462;-77
2021/08/10 08:37:47;;;;;;;4.80;4.30;;;21.20;1.00;;;;;;5129095;27;20469;-76
2021/08/10 08:40:17;;;;;;;4.17;3.77;;;21.20;1.00;;;;;;5122044;27;20457;-77
2021/08/10 08:42:44;;;;;;;5.30;4.03;;;21.30;1.00;;;;;;5127762;27;20451;-78
2021/08/10 08:45:12;;;;;;;5.03;4.00;;;21.60;1.00;;;;;;5121771;27;20444;-76
2021/08/10 08:47:39;;;;;;;5.90;4.43;;;21.80;1.00;;;;;;5117379;27;20447;-74
2021/08/10 08:50:10;;;;;;;5.70;4.57;;;22.00;1.00;;;;;;5120744;27;20452;-75
2021/08/10 08:52:40;;;;;;;4.40;4.00;;;22.10;1.00;;;;;;5120362;27;20466;-76
2021/08/10 08:55:09;;;;;;;5.67;4.37;;;22.20;1.00;;;;;;5122909;27;20435;-77
2021/08/10 08:57:35;;;;;;;5.03;3.93;;;22.40;1.00;;;;;;5116858;27;20549;-75
2021/08/10 09:00:02;;;;;;;6.37;4.53;;;22.50;1.00;;;;;;5122784;27;20459;-77
2021/08/10 09:02:31;;;;;;;4.30;3.90;;;22.50;1.00;;;;;;5117757;27;20413;-75
2021/08/10 09:04:58;;;;;;;5.10;4.10;;;22.50;1.00;;;;;;5120252;27;20974;-74
2021/08/10 09:07:28;;;;;;;5.80;4.33;;;22.40;1.00;;;;;;5117892;27;20479;-77
2021/08/10 09:10:07;;;;;;;5.97;4.63;;;22.40;1.00;;;;;;5116573;27;20480;-75
2021/08/10 09:12:41;;;;;;;4.33;3.97;;;22.50;1.00;;;;;;5114500;27;20530;-77
2021/08/10 09:15:09;;;;;;;7.90;4.50;;;22.50;1.00;;;;;;5115758;27;20449;-77
2021/08/10 09:17:46;;;;;;;7.37;3.73;;;22.50;1.00;;;;;;5118928;27;21178;-76
2021/08/10 09:20:20;;;;;;;4.43;4.00;;;22.40;1.00;;;;;;5100779;27;20479;-77
2021/08/10 09:22:46;;;;;;;7.37;4.87;;;22.40;1.00;;;;;;5118956;27;20456;-76
2021/08/10 09:25:17;;;;;;;6.93;4.33;;;22.40;1.00;;;;;;5114491;27;21335;-76
2021/08/10 09:27:44;;;;;;;9.47;5.70;;;22.40;1.00;;;;;;5115749;27;20461;-75
2021/08/10 09:30:14;;;;;;;4.27;3.87;;;22.40;1.00;;;;;;5119199;27;20449;-77
2021/08/10 09:32:59;;;;;;;5.03;4.53;;;22.30;1.00;;;;;;5125054;27;20447;-78
2021/08/10 09:35:30;;;;;;;4.90;3.97;;;22.20;1.00;;;;;;5121087;27;20455;-76
2021/08/10 09:38:13;;;;;;;4.77;4.23;;;22.40;1.00;;;;;;5123858;27;20485;-77
2021/08/10 09:40:42;;;;;;;5.23;4.00;;;22.80;1.00;;;;;;5118502;27;20464;-75
2021/08/10 09:43:35;;;;;;;3.67;2.83;;;23.50;1.00;;;;;;5113803;27;20444;-75
2021/08/10 09:46:11;;;;;;;6.30;3.33;;;24.80;1.00;;;;;;5098247;27;20457;-76
2021/08/10 09:48:39;;;;;;;4.37;3.97;;;25.80;1.00;;;;;;5099256;27;20462;-76
2021/08/10 09:51:08;;;;;;;3.37;3.07;;;26.10;1.00;;;;;;5117321;27;20488;-75
2021/08/10 09:53:34;;;;;;;5.50;3.00;;;26.00;1.00;;;;;;5117944;27;20509;-74
2021/08/10 09:56:03;;;;;;;4.57;3.40;;;26.10;1.00;;;;;;5118409;27;21290;-76
2021/08/10 09:58:30;;;;;;;5.87;3.63;;;26.20;1.00;;;;;;5118985;27;20953;-77
2021/08/10 10:01:01;;;;;;;5.13;3.47;;;26.30;1.00;;;;;;5123718;27;20549;-75
2021/08/10 10:03:29;;;;;;;4.50;2.97;;;27.10;1.00;;;;;;5121651;27;20430;-75
2021/08/10 10:05:57;;;;;;;4.60;3.73;;;27.70;1.00;;;;;;5121816;27;20432;-78
2021/08/10 10:08:25;;;;;;;3.83;3.33;;;27.60;1.00;;;;;;5124509;27;20487;-76
2021/08/10 10:10:54;;;;;;;3.60;2.83;;;26.90;1.00;;;;;;5131673;27;21044;-75
2021/08/10 10:13:23;;;;;;;4.50;2.80;;;26.50;1.00;;;;;;5118789;27;20547;-76
2021/08/10 10:15:51;;;;;;;4.23;2.90;;;26.10;1.00;;;;;;5121880;27;20448;-76
2021/08/10 10:18:20;;;;;;;5.30;2.70;;;26.10;1.00;;;;;;5126686;27;20450;-75
2021/08/10 10:20:48;;;;;;;3.70;2.70;;;26.20;1.00;;;;;;5123637;27;20471;-75
2021/08/10 10:23:22;;;;;;;3.57;2.80;;;26.90;1.00;;;;;;5126698;27;20495;-75
2021/08/10 10:25:52;;;;;;;6.03;3.10;;;27.70;1.00;;;;;;5121702;27;20484;-76
2021/08/10 10:28:20;;;;;;;4.13;3.30;;;28.10;1.00;;;;;;5101654;27;20430;-75
2021/08/10 10:30:49;;;;;;;3.20;2.60;;;27.90;1.00;;;;;;5124750;27;20457;-77
2021/08/10 10:33:17;;;;;;;3.97;3.10;;;27.30;1.00;;;;;;5118353;27;20487;-77
2021/08/10 10:35:45;;;;;;;3.23;2.53;;;26.70;1.00;;;;;;5123773;27;20438;-75
2021/08/10 10:38:14;;;;;;;4.00;3.03;;;26.20;1.00;;;;;;5113999;27;21069;-74
2021/08/10 10:40:40;;;;;;;4.73;2.73;;;25.80;1.00;;;;;;5122577;27;20460;-77
2021/08/10 10:43:07;;;;;;;3.10;2.60;;;25.50;1.00;;;;;;5129895;27;20780;-76
2021/08/10 10:45:35;;;;;;;4.57;2.87;;;25.30;1.00;;;;;;5131588;27;21040;-75
2021/08/10 10:48:42;;;;;;;4.17;3.10;;;25.00;1.00;;;;;;5130627;27;20472;-75
2021/08/10 10:51:12;;;;;;;3.50;3.13;;;24.60;1.00;;;;;;5127547;27;20551;-75
2021/08/10 10:53:39;;;;;;;4.10;3.10;;;24.30;1.00;;;;;;5122362;27;20454;-74
2021/08/10 10:56:31;;;;;;;3.40;2.67;;;24.00;1.00;;;;;;5124350;27;20447;-75
2021/08/10 10:59:28;;;;;;;3.57;2.70;;;23.80;1.00;;;;;;5124511;27;21320;-77
2021/08/10 11:02:12;;;;;;;4.83;2.63;;;23.70;1.00;;;;;;5119085;27;20460;-75
2021/08/10 11:05:21;;;;;;;3.63;2.70;;;23.50;1.00;;;;;;5081022;27;20480;-76
2021/08/10 11:07:50;;;;;;;3.70;3.07;;;23.50;1.00;;;;;;5083131;28;21260;-74
2021/08/10 11:10:42;;;;;;;3.30;2.53;;;23.40;1.00;;;;;;5071382;28;20457;-75
2021/08/10 11:13:34;;;;;;;3.33;2.57;;;23.30;1.00;;;;;;5071121;28;21286;-76
2021/08/10 11:16:02;;;;;;;3.40;3.10;;;23.20;1.00;;;;;;5073710;28;20453;-77
2021/08/10 11:18:29;;;;;;;3.00;2.60;;;23.20;1.00;;;;;;5094008;28;20482;-75
2021/08/10 11:21:24;;;;;;;3.37;2.80;;;23.20;1.00;;;;;;5083140;28;20509;-74
2021/08/10 11:23:54;;;;;;;7.63;3.47;;;23.30;1.00;;;;;;5076115;28;20399;-74
2021/08/10 11:26:38;;;;;;;4.10;3.10;;;23.50;1.00;;;;;;5090928;28;20496;-76
2021/08/10 11:29:12;;;;;;;3.13;2.50;;;24.30;1.00;;;;;;5091335;28;20637;-75
2021/08/10 11:31:46;;;;;;;4.03;3.13;;;26.20;1.00;;;;;;5089255;28;20956;-74
2021/08/10 11:34:37;;;;;;;3.77;2.67;;;27.00;1.00;;;;;;5084269;28;20504;-77
2021/08/10 11:37:24;;;;;;;4.30;2.50;;;28.00;1.00;;;;;;5066112;28;20497;-77
2021/08/10 11:40:11;;;;;;;3.80;3.10;;;28.70;1.00;;;;;;5080072;28;20574;-75
2021/08/10 11:42:43;;;;;;;4.57;2.53;;;28.60;1.00;;;;;;5084065;28;20586;-78
2021/08/10 11:45:10;;;;;;;2.67;2.30;;;28.10;1.00;;;;;;5083954;28;20967;-76
2021/08/10 11:47:37;;;;;;;3.30;2.23;;;28.10;1.00;;;;;;5090095;28;20432;-77
2021/08/10 11:50:05;;;;;;;4.27;2.83;;;27.70;1.00;;;;;;5070777;28;20465;-76
2021/08/10 11:52:46;;;;;;;4.00;2.77;;;27.30;1.00;;;;;;5084744;28;20456;-76
2021/08/10 11:55:15;;;;;;;4.60;3.07;;;27.00;1.00;;;;;;5085002;28;20443;-76
2021/08/10 11:58:01;;;;;;;4.30;3.00;;;27.00;1.00;;;;;;5089207;28;21525;-77
2021/08/10 12:00:29;;;;;;;3.97;2.67;;;27.40;1.00;;;;;;5085762;28;20448;-74
2021/08/10 12:02:57;;;;;;;4.83;2.73;;;27.70;1.00;;;;;;5078274;28;20429;-76
2021/08/10 12:05:24;;;;;;;4.20;3.03;;;27.80;1.00;;;;;;5081827;28;20482;-73
2021/08/10 12:07:54;;;;;;;5.43;2.80;;;27.70;1.00;;;;;;5079348;28;20485;-76
2021/08/10 12:10:33;;;;;;;5.60;3.17;;;27.80;1.00;;;;;;5079365;28;20507;-74
2021/08/10 12:13:06;;;;;;;3.37;3.07;;;27.60;1.00;;;;;;5080399;28;21265;-75
2021/08/10 12:15:42;;;;;;;4.97;3.33;;;27.20;1.00;;;;;;5081060;28;20459;-77
2021/08/10 12:18:11;;;;;;;3.70;3.20;;;27.10;1.00;;;;;;5060757;28;20462;-77
2021/08/10 12:20:37;;;;;;;6.33;3.40;;;27.70;1.00;;;;;;5080776;28;20449;-77
2021/08/10 12:23:07;;;;;;;5.53;2.83;;;28.10;1.00;;;;;;5081477;28;21023;-77
2021/08/10 12:25:36;;;;;;;4.40;2.30;;;28.90;1.00;;;;;;5085782;28;20457;-78
2021/08/10 12:28:05;;;;;;;3.10;2.53;;;28.80;1.00;;;;;;5091375;28;20473;-76
2021/08/10 12:30:33;;;;;;;3.50;3.17;;;29.20;1.00;;;;;;5087226;28;20438;-74
2021/08/10 12:33:18;;;;;;;3.83;2.83;;;29.90;1.00;;;;;;5106618;27;20483;-76
2021/08/10 12:36:00;;;;;;;5.13;2.53;;;30.60;1.00;;;;;;5109027;27;20383;-73
2021/08/10 12:38:27;;;;;;;3.53;2.00;;;30.10;1.00;;;;;;5112247;27;20421;-75
2021/08/10 12:40:56;;;;;;;3.60;2.70;;;29.10;1.00;;;;;;5105684;27;20433;-76
2021/08/10 12:43:26;;;;;;;5.77;3.30;;;28.70;1.00;;;;;;5103453;27;20424;-74
2021/08/10 12:45:53;;;;;;;4.50;2.43;;;28.50;1.00;;;;;;5105035;27;20442;-75
2021/08/10 12:48:28;;;;;;;4.13;2.67;;;29.40;1.00;;;;;;5093560;28;20449;-73
2021/08/10 12:50:56;;;;;;;3.97;2.40;;;29.50;1.00;;;;;;5108339;27;20415;-76
2021/08/10 12:53:28;;;;;;;6.40;2.37;;;30.00;1.00;;;;;;5110326;27;20475;-76
2021/08/10 12:55:58;;;;;;;4.83;3.00;;;30.60;1.00;;;;;;5098134;27;20453;-74
2021/08/10 12:58:25;;;;;;;3.43;2.63;;;30.00;1.00;;;;;;5095229;27;20506;-74
2021/08/10 13:01:04;;;;;;;2.77;2.33;;;29.50;1.00;;;;;;5103122;27;20439;-73
2021/08/10 13:03:31;;;;;;;3.30;2.80;;;28.70;1.00;;;;;;5105742;28;20467;-74
2021/08/10 13:05:58;;;;;;;3.30;2.30;;;28.20;1.00;;;;;;5102917;27;20414;-73
2021/08/10 13:08:27;;;;;;;4.13;2.20;;;29.00;1.00;;;;;;5101720;28;20493;-74